Time;durP1;ratioP1;P1;durP2;ratioP2;P2;SDS_P1;SDS_P2;PMS_P1;PMS_P2;Temp;Humidity;BMP_temperature;BMP_pressure;BME280_temperature;BME280_humidity;BME280_pressure;Samples;Min_cycle;Max_cycle;Signal;HPM_P1;HPM_P2
2021/05/03 00:01:45;;;;;;;9.97;8.43;;;;;;;2.44;76.71;95985.75;5027652;28;20186;-74
2021/05/03 00:04:11;;;;;;;11.70;7.67;;;;;;;2.39;77.20;95984.38;5012495;28;20280;-74
2021/05/03 00:06:36;;;;;;;9.93;8.27;;;;;;;2.35;77.08;95981.16;5026319;28;20216;-75
2021/05/03 00:09:02;;;;;;;10.57;8.27;;;;;;;2.34;76.99;95994.06;5012441;28;20195;-74
2021/05/03 00:11:28;;;;;;;10.67;8.33;;;;;;;2.44;76.44;95982.38;4994723;28;20189;-74
2021/05/03 00:13:53;;;;;;;10.70;7.77;;;;;;;2.37;76.66;95984.44;5012270;28;20207;-74
2021/05/03 00:16:18;;;;;;;10.63;8.40;;;;;;;2.38;76.70;95986.09;5011432;28;20574;-74
2021/05/03 00:18:43;;;;;;;11.63;8.23;;;;;;;2.43;76.31;95986.69;5012224;28;20183;-74
2021/05/03 00:21:09;;;;;;;9.67;7.63;;;;;;;2.41;76.39;95985.13;5012228;28;20193;-74
2021/05/03 00:23:34;;;;;;;9.23;8.03;;;;;;;2.34;76.21;95983.81;5012143;28;20183;-75
2021/05/03 00:25:59;;;;;;;9.77;8.13;;;;;;;2.39;76.45;95992.09;5011472;28;20214;-74
2021/05/03 00:28:25;;;;;;;13.80;8.30;;;;;;;2.27;76.46;95989.28;5011924;28;20199;-74
2021/05/03 00:30:50;;;;;;;9.97;7.53;;;;;;;2.27;76.47;95993.56;5011801;28;20202;-74
2021/05/03 00:33:15;;;;;;;10.77;8.77;;;;;;;2.22;76.72;95990.47;5012078;28;20183;-74
2021/05/03 00:35:41;;;;;;;11.63;8.47;;;;;;;2.24;76.39;95989.47;5011228;28;20203;-74
2021/05/03 00:38:06;;;;;;;11.27;8.63;;;;;;;2.15;76.68;95989.97;5011948;28;20193;-74
2021/05/03 00:40:32;;;;;;;9.70;8.13;;;;;;;2.17;76.21;95992.44;5011901;28;20181;-75
2021/05/03 00:42:57;;;;;;;9.77;7.97;;;;;;;2.27;75.86;95991.84;5011834;28;20185;-74
2021/05/03 00:45:23;;;;;;;11.43;7.80;;;;;;;2.29;75.62;95989.19;5025256;28;20323;-74
2021/05/03 00:47:48;;;;;;;10.40;8.27;;;;;;;2.19;75.36;95995.75;5011749;28;20274;-73
2021/05/03 00:50:17;;;;;;;10.33;7.77;;;;;;;2.17;76.14;95997.56;5027063;28;20195;-74
2021/05/03 00:52:42;;;;;;;14.10;10.03;;;;;;;2.23;75.72;95992.13;5018431;28;20244;-74
2021/05/03 00:55:09;;;;;;;10.47;8.30;;;;;;;2.22;75.50;95998.16;5030736;28;20281;-74
2021/05/03 00:57:34;;;;;;;10.33;7.80;;;;;;;2.22;75.39;95996.41;5031322;28;20285;-75
2021/05/03 01:00:00;;;;;;;8.67;7.43;;;;;;;2.29;74.47;95996.88;5013656;28;20734;-74
2021/05/03 01:02:25;;;;;;;8.97;8.00;;;;;;;2.25;74.82;95987.72;5013723;28;20653;-73
2021/05/03 01:04:50;;;;;;;11.27;7.97;;;;;;;2.32;74.44;95991.59;5030451;28;20170;-74
2021/05/03 01:07:16;;;;;;;10.43;8.37;;;;;;;2.28;74.33;95984.97;5013509;28;20202;-74
2021/05/03 01:09:41;;;;;;;10.50;7.80;;;;;;;2.35;74.34;95991.41;5013624;28;20261;-73
2021/05/03 01:12:08;;;;;;;11.10;7.87;;;;;;;2.33;74.02;95990.69;5031173;28;20536;-74
2021/05/03 01:14:33;;;;;;;9.63;7.40;;;;;;;2.27;74.55;95989.28;5030438;28;20214;-75
2021/05/03 01:16:58;;;;;;;9.90;7.30;;;;;;;2.29;74.49;95986.63;5031073;28;20194;-74
2021/05/03 01:19:24;;;;;;;9.67;7.17;;;;;;;2.25;74.63;95991.09;5034447;28;20207;-74
2021/05/03 01:21:49;;;;;;;8.00;7.00;;;;;;;2.22;74.33;95993.03;5035290;28;20188;-74
2021/05/03 01:24:16;;;;;;;9.50;7.90;;;;;;;2.20;74.91;95989.69;5034846;28;20201;-74
2021/05/03 01:26:41;;;;;;;10.10;8.03;;;;;;;2.21;74.38;95994.75;5034814;28;20206;-74
2021/05/03 01:29:07;;;;;;;9.23;7.37;;;;;;;2.30;74.20;95995.13;5034928;28;20221;-74
2021/05/03 01:31:32;;;;;;;8.23;7.40;;;;;;;2.31;74.64;95994.25;5035303;28;20179;-74
2021/05/03 01:34:03;;;;;;;10.37;8.13;;;;;;;2.33;74.36;95998.38;5034969;28;20200;-74
2021/05/03 01:36:29;;;;;;;9.53;7.30;;;;;;;2.46;73.70;95994.19;5034351;28;20210;-74
2021/05/03 01:38:54;;;;;;;8.87;7.63;;;;;;;2.52;73.71;95993.84;5034888;28;20187;-74
2021/05/03 01:41:19;;;;;;;11.37;8.23;;;;;;;2.47;73.85;95992.44;5034774;28;20183;-74
2021/05/03 01:43:45;;;;;;;8.87;7.73;;;;;;;2.50;73.57;95998.25;5034874;28;20179;-74
2021/05/03 01:46:10;;;;;;;10.17;7.17;;;;;;;2.56;72.73;95994.47;5015613;28;20276;-73
2021/05/03 01:48:36;;;;;;;9.30;7.23;;;;;;;2.61;72.73;95991.66;5017022;28;20178;-75
2021/05/03 01:51:01;;;;;;;8.97;7.57;;;;;;;2.64;72.05;95991.47;5034627;28;20265;-74
2021/05/03 01:53:27;;;;;;;9.63;7.37;;;;;;;2.71;71.98;95996.16;5034489;28;20186;-74
2021/05/03 01:55:54;;;;;;;10.00;7.20;;;;;;;2.64;72.26;95984.59;5016367;28;20227;-75
2021/05/03 01:58:21;;;;;;;7.70;6.90;;;;;;;2.65;71.81;95995.69;5034580;28;20185;-74
2021/05/03 02:00:47;;;;;;;8.47;7.13;;;;;;;2.60;72.58;95998.53;5016908;28;20182;-74
2021/05/03 02:03:17;;;;;;;8.73;7.20;;;;;;;2.70;71.52;95993.69;5034498;28;20553;-74
2021/05/03 02:05:42;;;;;;;7.37;6.60;;;;;;;2.66;71.66;95999.94;5033904;28;20552;-74
2021/05/03 02:08:07;;;;;;;9.03;6.63;;;;;;;2.71;70.42;95995.34;5034415;28;20266;-74
2021/05/03 02:10:33;;;;;;;7.40;6.63;;;;;;;2.60;71.20;95995.16;5034425;28;20263;-73
2021/05/03 02:12:59;;;;;;;8.83;6.80;;;;;;;2.60;71.28;95992.59;5034376;28;20220;-74
2021/05/03 02:15:26;;;;;;;7.80;6.53;;;;;;;2.59;71.14;95984.06;5033399;28;20574;-74
2021/05/03 02:17:51;;;;;;;9.47;6.93;;;;;;;2.55;71.26;95993.66;5034263;28;20182;-73
2021/05/03 02:20:17;;;;;;;9.20;6.97;;;;;;;2.52;71.30;95988.72;5034113;28;20190;-74
2021/05/03 02:22:43;;;;;;;7.53;6.60;;;;;;;2.52;71.74;95987.88;5034198;28;20226;-74
2021/05/03 02:25:09;;;;;;;8.53;6.90;;;;;;;2.44;72.00;95990.06;5015797;28;20170;-74
2021/05/03 02:27:35;;;;;;;9.23;6.70;;;;;;;2.36;72.28;95987.09;5033817;28;20202;-74
2021/05/03 02:30:00;;;;;;;9.67;6.80;;;;;;;2.34;71.89;95987.19;5033939;28;20189;-74
2021/05/03 02:32:25;;;;;;;7.77;6.73;;;;;;;2.33;72.14;95992.41;5016305;28;20178;-73
2021/05/03 02:34:51;;;;;;;8.63;6.70;;;;;;;2.31;71.79;95999.38;5033164;28;20285;-74
2021/05/03 02:37:16;;;;;;;9.40;6.63;;;;;;;2.31;72.04;95989.94;5033861;28;20670;-74
2021/05/03 02:39:42;;;;;;;7.40;6.03;;;;;;;2.33;71.62;95988.13;5033760;28;20179;-74
2021/05/03 02:42:08;;;;;;;7.83;6.43;;;;;;;2.30;71.21;95993.44;5033811;28;20744;-74
2021/05/03 02:44:38;;;;;;;7.13;6.30;;;;;;;2.27;71.17;95985.88;5015418;28;20182;-73
2021/05/03 02:47:03;;;;;;;8.00;6.20;;;;;;;2.23;71.58;95992.13;5032551;28;20662;-74
2021/05/03 02:49:29;;;;;;;10.03;6.50;;;;;;;2.21;71.73;95996.50;5033713;28;20176;-74
2021/05/03 02:51:54;;;;;;;9.63;6.43;;;;;;;2.17;71.42;95995.84;5033518;28;20645;-74
2021/05/03 02:54:19;;;;;;;8.07;6.23;;;;;;;2.20;71.07;95998.22;5032926;28;20300;-74
2021/05/03 02:56:45;;;;;;;6.80;5.47;;;;;;;2.19;70.99;96000.88;5033459;28;20255;-74
2021/05/03 02:59:10;;;;;;;7.40;5.63;;;;;;;2.16;70.98;96001.88;5033439;28;20175;-74
2021/05/03 03:01:35;;;;;;;10.03;6.07;;;;;;;2.17;70.65;96005.25;5033286;28;20698;-75
2021/05/03 03:04:00;;;;;;;7.33;6.03;;;;;;;2.14;71.22;96008.00;5033314;28;20181;-74
2021/05/03 03:06:26;;;;;;;6.40;5.70;;;;;;;2.09;71.52;96000.56;5032683;28;20221;-74
2021/05/03 03:08:51;;;;;;;5.77;5.20;;;;;;;2.02;71.82;96004.34;5033276;28;20228;-74
2021/05/03 03:11:17;;;;;;;8.50;6.20;;;;;;;2.02;71.36;96003.53;5033291;28;20178;-73
2021/05/03 03:13:42;;;;;;;8.97;6.20;;;;;;;2.01;71.74;95995.03;5033116;28;20552;-74
2021/05/03 03:16:09;;;;;;;6.83;6.00;;;;;;;1.93;71.86;96010.00;5032219;28;20252;-74
2021/05/03 03:18:34;;;;;;;10.47;5.93;;;;;;;1.93;72.37;96005.69;5033097;28;20233;-74
2021/05/03 03:21:00;;;;;;;7.47;5.73;;;;;;;1.86;72.66;96006.97;5015455;28;20183;-73
2021/05/03 03:23:25;;;;;;;6.53;5.73;;;;;;;1.74;72.72;96009.34;5033071;28;20232;-73
2021/05/03 03:25:50;;;;;;;8.70;6.20;;;;;;;1.72;72.69;96006.88;5032163;28;20200;-75
2021/05/03 03:28:16;;;;;;;7.20;6.17;;;;;;;1.76;72.38;96002.41;5032806;28;20190;-75
2021/05/03 03:30:41;;;;;;;8.57;5.37;;;;;;;1.77;72.45;96010.03;5032776;28;20186;-75
2021/05/03 03:33:06;;;;;;;8.40;6.00;;;;;;;1.84;72.08;96011.31;5032858;28;20193;-74
2021/05/03 03:35:32;;;;;;;7.83;6.07;;;;;;;1.78;72.49;96021.91;5031992;28;20213;-74
2021/05/03 03:37:57;;;;;;;6.93;5.27;;;;;;;1.72;72.11;96017.09;5032767;28;20182;-75
2021/05/03 03:40:22;;;;;;;6.97;5.67;;;;;;;1.74;72.32;96017.84;5032173;28;20179;-74
2021/05/03 03:42:48;;;;;;;5.97;5.37;;;;;;;1.68;72.29;96024.13;5032510;28;20185;-75
2021/05/03 03:45:15;;;;;;;7.83;5.60;;;;;;;1.66;72.65;96027.66;5013172;28;20212;-74
2021/05/03 03:47:40;;;;;;;7.70;5.10;;;;;;;1.75;71.10;96021.22;5032524;28;20199;-75
2021/05/03 03:50:07;;;;;;;8.07;5.93;;;;;;;1.68;71.94;96016.47;5014773;28;20603;-72
2021/05/03 03:52:32;;;;;;;7.77;6.03;;;;;;;1.64;71.87;96020.06;5032474;28;20188;-74
2021/05/03 03:54:58;;;;;;;7.27;5.20;;;;;;;1.67;72.41;96025.03;5014031;28;20259;-74
2021/05/03 03:57:23;;;;;;;6.53;5.67;;;;;;;1.59;72.63;96031.47;5032194;28;20706;-75
2021/05/03 03:59:51;;;;;;;7.33;5.57;;;;;;;1.50;73.04;96032.78;5032334;28;20710;-75
2021/05/03 04:02:16;;;;;;;6.13;5.50;;;;;;;1.53;72.80;96031.81;5032149;28;20178;-75
2021/05/03 04:04:46;;;;;;;8.13;5.70;;;;;;;1.57;72.38;96030.72;5031661;28;20595;-75
2021/05/03 04:07:58;;;;;;;6.07;5.47;;;;;;;1.52;72.75;96045.50;5032142;28;20514;-75
2021/05/03 04:12:43;;;;;;;11.20;6.70;;;;;;;1.61;72.14;96043.28;5032254;28;20183;-75
2021/05/03 04:23:46;;;;;;;7.90;5.50;;;;;;;1.74;71.34;96051.13;5032008;28;20185;-75
2021/05/03 04:26:13;;;;;;;6.53;5.13;;;;;;;1.79;71.35;96049.16;5017210;28;20677;-75
2021/05/03 04:28:39;;;;;;;7.87;5.43;;;;;;;1.82;71.34;96051.56;5013787;28;20240;-74
2021/05/03 04:31:04;;;;;;;7.63;5.83;;;;;;;1.78;71.85;96050.06;5014190;28;20728;-75
2021/05/03 04:33:30;;;;;;;7.53;6.20;;;;;;;1.85;71.57;96048.00;5031690;28;20175;-74
2021/05/03 04:35:55;;;;;;;7.93;6.00;;;;;;;1.94;71.33;96057.75;5029461;28;20195;-75
2021/05/03 04:38:20;;;;;;;8.90;6.33;;;;;;;2.08;70.75;96059.56;5013702;28;20233;-77
2021/05/03 04:40:46;;;;;;;8.47;5.97;;;;;;;2.16;70.60;96058.25;5031660;28;20236;-77
2021/05/03 04:43:12;;;;;;;8.53;6.00;;;;;;;2.23;69.93;96056.19;5031894;28;20225;-75
2021/05/03 04:45:38;;;;;;;8.50;5.97;;;;;;;2.30;69.55;96060.06;5030849;28;20269;-75
2021/05/03 04:48:04;;;;;;;6.67;5.67;;;;;;;2.43;69.17;96062.75;5031535;28;20273;-75
2021/05/03 04:50:29;;;;;;;9.90;5.37;;;;;;;2.55;68.89;96067.19;5031299;28;20200;-74
2021/05/03 04:52:54;;;;;;;7.37;5.73;;;;;;;2.71;68.54;96064.59;5007047;28;20192;-75
2021/05/03 04:55:20;;;;;;;5.87;5.20;;;;;;;3.64;66.26;96057.38;5007837;28;20257;-75
2021/05/03 04:57:45;;;;;;;7.50;5.30;;;;;;;4.81;61.34;96071.44;5010514;28;20237;-75
2021/05/03 05:00:11;;;;;;;6.50;4.90;;;;;;;5.88;57.69;96067.66;5010690;28;20698;-76
2021/05/03 05:02:36;;;;;;;7.83;4.67;;;;;;;5.93;57.45;96075.09;5010875;28;20184;-75
2021/05/03 05:05:02;;;;;;;7.70;5.03;;;;;;;5.45;58.72;96071.50;5010421;28;20272;-74
2021/05/03 05:07:29;;;;;;;6.00;4.30;;;;;;;6.21;56.57;96076.56;4992860;28;20627;-75
2021/05/03 05:09:56;;;;;;;6.07;5.10;;;;;;;6.58;55.73;96079.94;5010711;28;20218;-75
2021/05/03 05:12:21;;;;;;;8.83;5.10;;;;;;;7.08;53.22;96080.63;5009648;28;20277;-75
2021/05/03 05:14:46;;;;;;;5.03;4.50;;;;;;;7.34;53.51;96076.91;5009828;28;20241;-75
2021/05/03 05:17:12;;;;;;;6.27;4.63;;;;;;;6.70;55.04;96083.38;5010838;28;20242;-74
2021/05/03 05:19:37;;;;;;;6.07;4.70;;;;;;;6.25;55.73;96078.81;5010938;28;20218;-75
2021/05/03 05:22:02;;;;;;;5.67;4.77;;;;;;;6.12;57.05;96079.81;5010597;28;20270;-76
2021/05/03 05:24:28;;;;;;;6.00;5.27;;;;;;;6.11;57.50;96088.47;5009931;28;20183;-76
2021/05/03 05:26:53;;;;;;;7.97;5.33;;;;;;;6.10;57.37;96086.81;4992740;28;20207;-75
2021/05/03 05:29:18;;;;;;;6.63;5.60;;;;;;;6.24;57.60;96084.09;5010504;28;20562;-76
2021/05/03 05:31:44;;;;;;;8.47;6.20;;;;;;;5.96;58.05;96086.03;5008304;28;20188;-75
2021/05/03 05:34:09;;;;;;;6.93;5.97;;;;;;;5.88;57.60;96085.69;5010519;28;20218;-75
2021/05/03 05:36:34;;;;;;;7.63;6.03;;;;;;;5.80;57.57;96085.38;5001933;28;20207;-72
2021/05/03 05:39:00;;;;;;;6.07;5.47;;;;;;;5.78;57.36;96084.69;5010327;28;20557;-76
2021/05/03 05:41:26;;;;;;;8.40;5.90;;;;;;;5.73;58.11;96084.16;5010719;28;20592;-75
2021/05/03 05:43:52;;;;;;;7.43;6.20;;;;;;;5.62;57.36;96087.47;5010683;28;20176;-76
2021/05/03 05:46:18;;;;;;;7.10;6.00;;;;;;;5.46;58.39;96092.00;5008965;28;20214;-76
2021/05/03 05:48:44;;;;;;;8.20;6.30;;;;;;;5.45;58.16;96087.78;5010473;28;20191;-76
2021/05/03 05:51:09;;;;;;;8.43;6.50;;;;;;;5.34;57.92;96088.50;5010241;28;20179;-76
2021/05/03 05:53:34;;;;;;;8.07;6.17;;;;;;;5.51;58.40;96089.13;5010416;28;20314;-76
2021/05/03 05:56:00;;;;;;;5.93;5.33;;;;;;;6.03;57.13;96088.19;5008737;28;20207;-75
2021/05/03 05:58:28;;;;;;;5.87;5.27;;;;;;;7.29;54.86;96094.50;5009169;28;20340;-75
2021/05/03 06:00:53;;;;;;;5.87;5.30;;;;;;;8.29;50.63;96094.66;5005764;28;20187;-74
2021/05/03 06:03:18;;;;;;;6.30;5.07;;;;;;;9.92;47.83;96086.50;5010307;28;20187;-76
2021/05/03 06:05:43;;;;;;;5.27;4.77;;;;;;;11.30;42.94;96090.81;5012434;28;20195;-73
2021/05/03 06:08:09;;;;;;;6.37;4.90;;;;;;;12.77;40.36;96099.59;5013894;28;20225;-74
2021/05/03 06:10:34;;;;;;;5.57;4.63;;;;;;;13.71;38.10;96100.91;5014401;28;20285;-74
2021/05/03 06:13:00;;;;;;;5.83;5.07;;;;;;;13.82;36.60;96101.47;5013238;28;20292;-74
2021/05/03 06:15:25;;;;;;;5.63;4.85;;;;;;;15.26;34.49;96104.91;5013529;28;20207;-74
2021/05/03 06:17:50;;;;;;;5.18;4.68;;;;;;;14.25;34.83;96104.13;5014315;28;20199;-73
2021/05/03 06:20:16;;;;;;;5.90;5.30;;;;;;;14.78;35.78;96113.50;5014129;28;20186;-73
2021/05/03 06:22:41;;;;;;;4.97;4.47;;;;;;;15.94;32.87;96115.03;5014031;28;20266;-73
2021/05/03 06:25:08;;;;;;;4.90;4.40;;;;;;;15.94;32.12;96119.47;5013463;28;20183;-73
2021/05/03 06:27:34;;;;;;;7.07;5.05;;;;;;;15.81;32.57;96117.34;4996260;28;20199;-74
2021/05/03 06:29:59;;;;;;;5.10;4.60;;;;;;;15.12;33.00;96118.66;5014126;28;20183;-73
2021/05/03 06:32:25;;;;;;;6.00;4.97;;;;;;;15.49;32.82;96112.94;5013856;28;20175;-74
2021/05/03 06:34:51;;;;;;;6.45;4.85;;;;;;;15.99;32.59;96123.22;5013286;28;20202;-75
2021/05/03 06:37:16;;;;;;;6.68;5.05;;;;;;;16.49;31.92;96122.06;5014006;28;20191;-74
2021/05/03 06:39:41;;;;;;;5.57;4.80;;;;;;;16.22;30.52;96119.88;5013804;28;20203;-73
2021/05/03 06:42:07;;;;;;;5.40;4.90;;;;;;;16.01;31.28;96125.69;5013589;28;20636;-74
2021/05/03 06:44:34;;;;;;;6.85;5.25;;;;;;;16.25;31.31;96127.38;5013017;28;20175;-73
2021/05/03 06:47:01;;;;;;;7.30;5.13;;;;;;;16.59;30.21;96130.53;5013755;28;20198;-75
2021/05/03 06:49:27;;;;;;;7.25;5.07;;;;;;;16.32;29.94;96130.97;5013403;28;20171;-74
2021/05/03 06:51:52;;;;;;;5.57;5.05;;;;;;;16.50;30.13;96130.75;5013589;28;20544;-74
2021/05/03 06:54:17;;;;;;;5.45;5.05;;;;;;;15.48;30.97;96134.84;5012710;28;20556;-73
2021/05/03 06:56:43;;;;;;;5.55;5.05;;;;;;;16.46;30.58;96137.34;5012577;28;20206;-75
2021/05/03 06:59:08;;;;;;;5.28;4.85;;;;;;;15.94;31.18;96137.78;5012242;28;20183;-74
2021/05/03 07:01:33;;;;;;;5.68;5.18;;;;;;;16.34;29.15;96139.47;5011898;28;20179;-75
2021/05/03 07:03:59;;;;;;;5.65;5.00;;;;;;;15.56;30.38;96140.91;5011815;28;20190;-75
2021/05/03 07:06:24;;;;;;;6.25;4.97;;;;;;;16.22;30.55;96139.03;5007556;28;20231;-75
2021/05/03 07:08:51;;;;;;;5.55;5.05;;;;;;;15.48;32.52;96140.09;5012306;28;20183;-75
2021/05/03 07:11:17;;;;;;;5.68;5.13;;;;;;;15.23;31.92;96141.88;4995375;28;20183;-75
2021/05/03 07:13:43;;;;;;;5.18;4.78;;;;;;;15.07;32.63;96144.44;5012965;28;20199;-74
2021/05/03 07:16:08;;;;;;;5.72;5.22;;;;;;;14.80;32.07;96151.56;5010989;28;20242;-75
2021/05/03 07:18:33;;;;;;;6.05;5.47;;;;;;;14.61;33.11;96144.00;5023005;28;20190;-76
2021/05/03 07:20:59;;;;;;;6.32;5.53;;;;;;;14.65;32.93;96146.13;5012953;28;20184;-76
2021/05/03 07:23:24;;;;;;;6.03;5.43;;;;;;;14.05;33.41;96147.97;5013200;28;20245;-75
2021/05/03 07:25:50;;;;;;;6.38;5.47;;;;;;;13.76;34.43;96138.63;5012252;28;20202;-76
2021/05/03 07:28:15;;;;;;;7.07;5.90;;;;;;;13.67;35.44;96144.75;5011318;28;20276;-75
2021/05/03 07:30:40;;;;;;;6.60;5.87;;;;;;;13.64;34.82;96139.84;5028183;28;20262;-75
2021/05/03 07:33:06;;;;;;;5.93;5.33;;;;;;;12.84;36.64;96145.94;5028162;28;20496;-75
2021/05/03 07:35:31;;;;;;;6.97;5.63;;;;;;;12.34;37.09;96154.13;5012275;28;20670;-74
2021/05/03 07:37:57;;;;;;;5.63;5.13;;;;;;;12.20;38.97;96147.63;5012654;28;20651;-75
2021/05/03 07:40:22;;;;;;;6.20;5.60;;;;;;;11.54;39.82;96151.03;5027993;28;20183;-75
2021/05/03 07:42:47;;;;;;;7.40;5.23;;;;;;;11.48;39.40;96151.56;5012200;28;20706;-74
2021/05/03 07:45:15;;;;;;;9.07;6.17;;;;;;;10.14;40.97;96148.56;5011729;28;20168;-74
2021/05/03 07:47:41;;;;;;;6.17;5.20;;;;;;;9.86;41.56;96146.66;4994922;28;20195;-75
2021/05/03 07:50:06;;;;;;;5.30;4.80;;;;;;;9.40;43.38;96153.06;4994848;28;20228;-75
2021/05/03 07:52:32;;;;;;;7.17;5.67;;;;;;;9.46;44.26;96155.19;4993911;28;20671;-75
2021/05/03 07:55:01;;;;;;;6.57;5.40;;;;;;;9.57;43.51;96149.09;5010726;28;20215;-75
2021/05/03 07:57:27;;;;;;;8.67;5.73;;;;;;;9.67;43.03;96152.56;5004261;28;20203;-75
2021/05/03 07:59:53;;;;;;;6.40;5.70;;;;;;;9.70;43.39;96152.31;5011911;28;20187;-75
2021/05/03 08:02:18;;;;;;;6.30;5.47;;;;;;;9.73;44.74;96143.47;5011631;28;20205;-76
2021/05/03 08:04:44;;;;;;;6.90;6.07;;;;;;;9.89;44.62;96147.25;5010399;28;20194;-74
2021/05/03 08:07:09;;;;;;;7.23;5.30;;;;;;;9.59;44.46;96152.38;5011188;28;20289;-75
2021/05/03 08:09:35;;;;;;;7.07;6.33;;;;;;;9.45;44.54;96155.28;5011778;28;20187;-75
2021/05/03 08:12:00;;;;;;;8.57;5.87;;;;;;;9.25;45.16;96149.94;5011568;28;20198;-75
2021/05/03 08:14:26;;;;;;;7.57;5.73;;;;;;;9.23;45.15;96149.25;5010688;28;20206;-75
2021/05/03 08:16:55;;;;;;;7.53;6.17;;;;;;;8.97;44.88;96150.53;5011443;28;20221;-74
2021/05/03 08:19:22;;;;;;;6.47;5.57;;;;;;;9.14;46.22;96149.19;5011442;28;20175;-74
2021/05/03 08:21:48;;;;;;;8.33;5.80;;;;;;;9.56;44.82;96148.28;4994353;28;20186;-75
2021/05/03 08:24:14;;;;;;;7.30;5.57;;;;;;;10.02;44.89;96148.81;5010921;28;20269;-76
2021/05/03 08:26:39;;;;;;;8.10;5.97;;;;;;;10.15;43.57;96144.22;5010986;28;20294;-76
2021/05/03 08:29:04;;;;;;;6.00;5.20;;;;;;;10.16;43.18;96141.50;4993387;28;20644;-75
2021/05/03 08:31:30;;;;;;;9.37;5.60;;;;;;;10.43;43.59;96145.31;4994193;28;20183;-76
2021/05/03 08:33:55;;;;;;;6.57;5.77;;;;;;;10.08;40.64;96143.94;5010792;28;20191;-76
2021/05/03 08:36:20;;;;;;;5.23;4.73;;;;;;;10.13;42.75;96143.53;5010616;28;20214;-74
2021/05/03 08:38:46;;;;;;;5.97;5.37;;;;;;;10.04;43.90;96134.75;5011051;28;20179;-75
2021/05/03 08:41:15;;;;;;;6.83;5.77;;;;;;;9.52;43.66;96143.47;5010935;28;20675;-75
2021/05/03 08:43:42;;;;;;;5.77;5.17;;;;;;;9.28;43.92;96148.91;5011388;28;20682;-75
2021/05/03 08:46:10;;;;;;;6.07;5.30;;;;;;;9.08;45.35;96147.91;5010453;28;20210;-77
2021/05/03 08:48:41;;;;;;;6.97;5.87;;;;;;;9.24;44.08;96152.69;5001960;28;20549;-77
2021/05/03 08:51:14;;;;;;;7.50;5.40;;;;;;;9.54;42.19;96147.59;5016643;28;20189;-74
2021/05/03 08:53:44;;;;;;;8.60;5.20;;;;;;;9.29;43.83;96146.19;5011092;28;20179;-75
2021/05/03 08:56:10;;;;;;;6.10;4.73;;;;;;;9.90;44.19;96141.13;5009329;28;20199;-75
2021/05/03 08:58:39;;;;;;;7.23;5.63;;;;;;;9.81;43.32;96147.06;5010888;28;20241;-76
2021/05/03 09:01:05;;;;;;;5.37;4.73;;;;;;;10.25;42.63;96145.13;5009995;28;20207;-74
2021/05/03 09:03:33;;;;;;;5.70;5.20;;;;;;;10.14;42.68;96142.56;5010651;28;20600;-77
2021/05/03 09:06:04;;;;;;;6.00;4.10;;;;;;;9.77;41.36;96150.03;5009882;28;20591;-74
2021/05/03 09:08:30;;;;;;;5.83;4.93;;;;;;;9.31;41.19;96144.28;5010490;28;20266;-74
2021/05/03 09:10:56;;;;;;;6.13;5.23;;;;;;;8.98;41.16;96140.06;5010617;28;20183;-75
2021/05/03 09:13:36;;;;;;;4.73;4.33;;;;;;;9.13;42.09;96140.59;4992523;28;20193;-76
2021/05/03 09:16:12;;;;;;;6.13;5.13;;;;;;;9.27;43.82;96142.88;4988370;28;20215;-75
2021/05/03 09:18:39;;;;;;;4.90;4.40;;;;;;;9.31;43.61;96136.50;5005654;28;20226;-75
2021/05/03 09:21:05;;;;;;;5.43;4.87;;;;;;;9.35;43.62;96130.09;5010404;28;20709;-76
2021/05/03 09:23:30;;;;;;;6.33;5.70;;;;;;;9.36;43.06;96139.56;5010744;28;20183;-76
2021/05/03 09:25:55;;;;;;;5.17;4.20;;;;;;;9.41;42.22;96126.19;5009890;28;20214;-75
2021/05/03 09:28:28;;;;;;;5.37;4.73;;;;;;;9.44;42.62;96131.13;5010583;28;20578;-75
2021/05/03 09:30:56;;;;;;;5.30;4.60;;;;;;;9.47;41.84;96130.06;5010100;28;20190;-75
2021/05/03 09:33:29;;;;;;;4.40;4.00;;;;;;;9.99;40.42;96120.53;5010123;28;20641;-75
2021/05/03 09:35:57;;;;;;;6.03;4.13;;;;;;;10.25;41.30;96123.50;4992343;28;20247;-74
2021/05/03 09:38:29;;;;;;;8.00;4.97;;;;;;;10.14;43.07;96114.84;5010301;28;20201;-76
2021/05/03 09:41:17;;;;;;;6.30;4.37;;;;;;;10.08;40.87;96119.75;5014355;28;20187;-77
2021/05/03 09:43:46;;;;;;;5.70;4.33;;;;;;;10.03;40.92;96125.31;5004105;28;20184;-76
2021/05/03 09:46:26;;;;;;;4.97;4.47;;;;;;;9.88;41.12;96124.81;5013727;28;20222;-75
2021/05/03 09:48:53;;;;;;;4.30;3.57;;;;;;;10.01;40.58;96122.03;5013284;28;20182;-76
2021/05/03 09:51:29;;;;;;;4.40;4.00;;;;;;;10.06;40.39;96124.22;4995193;28;20241;-75
2021/05/03 09:54:03;;;;;;;5.33;3.83;;;;;;;10.21;40.32;96121.16;5013061;28;20194;-75
2021/05/03 09:56:44;;;;;;;4.67;4.00;;;;;;;10.69;38.63;96111.88;5011330;28;20838;-74
2021/05/03 09:59:25;;;;;;;3.87;3.27;;;;;;;10.45;36.16;96115.66;5013968;28;20187;-75
2021/05/03 10:02:00;;;;;;;6.37;4.20;;;;;;;10.62;39.39;96126.38;5014264;28;20273;-74
2021/05/03 10:04:26;;;;;;;4.53;4.13;;;;;;;10.44;38.31;96121.81;5012984;28;20193;-73
2021/05/03 10:06:51;;;;;;;5.60;3.90;;;;;;;10.28;39.64;96113.69;4995839;28;20215;-74
2021/05/03 10:09:16;;;;;;;4.20;3.80;;;;;;;10.27;40.11;96117.25;5014384;28;20262;-75
2021/05/03 10:11:42;;;;;;;4.37;3.97;;;;;;;9.98;40.43;96121.47;5014402;28;20293;-75
2021/05/03 10:14:07;;;;;;;4.47;3.47;;;;;;;9.87;40.01;96122.38;5013670;28;20211;-74
2021/05/03 10:16:32;;;;;;;7.27;5.00;;;;;;;9.83;36.90;96118.41;5013076;28;20210;-74
2021/05/03 10:18:58;;;;;;;6.30;4.90;;;;;;;9.70;38.20;96121.19;4995949;28;20265;-75
2021/05/03 10:21:23;;;;;;;28.47;20.63;;;;;;;10.07;38.11;96118.09;5030126;28;20180;-77
2021/05/03 10:23:49;;;;;;;5.20;3.90;;;;;;;10.15;36.29;96118.25;5014219;28;20242;-75
2021/05/03 10:26:14;;;;;;;3.70;3.30;;;;;;;10.76;37.32;96110.38;5015193;28;20261;-76
2021/05/03 10:28:57;;;;;;;2.80;2.60;;;;;;;11.00;33.23;96104.81;5014832;28;20281;-76
2021/05/03 10:31:23;;;;;;;2.70;2.50;;;;;;;10.91;33.35;96101.25;4999027;28;20242;-73
2021/05/03 10:33:49;;;;;;;3.87;3.33;;;;;;;10.88;34.23;96092.91;4983483;28;20698;-74
2021/05/03 10:36:35;;;;;;;5.03;4.63;;;;;;;10.74;35.05;96094.13;5001775;28;20411;-74
2021/05/03 10:39:02;;;;;;;4.23;3.60;;;;;;;10.74;36.38;96100.13;5012316;28;20590;-74
2021/05/03 10:41:32;;;;;;;3.40;3.07;;;;;;;10.72;36.37;96096.84;5001508;28;20218;-74
2021/05/03 10:44:11;;;;;;;4.37;2.90;;;;;;;11.23;34.98;96095.78;4994218;28;20180;-75
2021/05/03 10:49:19;;;;;;;4.20;3.27;;;;;;;11.67;34.87;96088.31;5013153;28;20244;-74
2021/05/03 10:54:25;;;;;;;5.63;3.63;;;;;;;11.74;35.28;96075.53;5027543;28;20290;-75
2021/05/03 10:56:52;;;;;;;3.33;3.00;;;;;;;11.39;35.37;96068.38;5008453;28;20207;-77
2021/05/03 10:59:17;;;;;;;3.63;3.33;;;;;;;11.80;35.68;96064.59;5029485;28;20187;-76
2021/05/03 11:01:52;;;;;;;4.63;3.20;;;;;;;12.09;34.61;96060.09;4995703;28;20176;-76
2021/05/03 11:04:30;;;;;;;4.50;2.60;;;;;;;12.53;33.57;96075.06;5008556;28;20187;-74
2021/05/03 11:06:56;;;;;;;3.80;3.13;;;;;;;11.75;33.86;96069.38;4999453;28;20855;-77
2021/05/03 11:09:34;;;;;;;3.37;2.80;;;;;;;11.63;35.88;96066.13;5010387;28;20237;-77
2021/05/03 11:12:23;;;;;;;3.70;3.40;;;;;;;11.36;35.62;96069.47;5008292;28;20700;-77
2021/05/03 11:15:10;;;;;;;4.87;4.20;;;;;;;11.40;36.52;96065.66;4998593;28;20268;-76
2021/05/03 11:17:35;;;;;;;4.23;3.83;;;;;;;11.35;35.42;96070.44;4997731;28;20222;-77
2021/05/03 11:20:10;;;;;;;4.30;3.90;;;;;;;11.19;35.41;96072.78;4994914;28;20294;-77
2021/05/03 11:22:42;;;;;;;3.90;3.50;;;;;;;11.40;34.97;96062.22;4997102;28;20185;-78
2021/05/03 11:25:18;;;;;;;4.20;3.53;;;;;;;11.05;34.79;96059.25;5009935;28;20182;-76
2021/05/03 11:32:39;;;;;;;4.93;4.27;;;;;;;11.15;36.67;96048.03;5010858;28;20191;-76
2021/05/03 11:38:02;;;;;;;3.73;3.40;;;;;;;10.88;36.09;96040.94;5011652;28;20191;-75
2021/05/03 11:46:31;;;;;;;6.60;6.00;;;;;;;10.88;35.42;96033.16;5002344;28;20240;-75
2021/05/03 11:48:58;;;;;;;4.43;4.03;;;;;;;11.19;36.20;96026.00;5010932;28;20175;-75
2021/05/03 11:51:23;;;;;;;3.10;2.63;;;;;;;11.59;36.52;96031.78;5026372;28;20175;-75
2021/05/03 11:53:49;;;;;;;3.63;2.60;;;;;;;11.54;33.73;96031.38;5011237;28;20186;-75
2021/05/03 11:56:28;;;;;;;3.53;2.80;;;;;;;11.58;32.29;96011.94;5025646;28;20199;-75
2021/05/03 11:58:58;;;;;;;3.30;2.73;;;;;;;11.36;30.90;96012.25;5011113;28;20707;-75
2021/05/03 12:01:28;;;;;;;5.97;3.57;;;;;;;11.67;33.11;96017.25;4993405;28;20176;-74
2021/05/03 12:03:58;;;;;;;3.90;3.27;;;;;;;11.63;33.50;96009.72;4992981;28;20267;-73
2021/05/03 12:06:35;;;;;;;3.90;2.93;;;;;;;11.26;34.10;96011.47;5009626;28;20206;-75
2021/05/03 12:09:03;;;;;;;3.93;2.90;;;;;;;11.25;33.47;96012.44;5010601;28;20270;-74